createdAt,value
2022-11-24T00:01:06.123Z,2.10
2022-11-24T00:03:33.117Z,2.88
2022-11-24T00:06:07.780Z,2.40
2022-11-24T00:08:35.696Z,2.30
2022-11-24T00:11:04.562Z,1.90
2022-11-24T00:13:32.141Z,2.03
2022-11-24T00:16:13.638Z,2.00
2022-11-24T00:18:41.708Z,2.00
2022-11-24T00:21:09.048Z,2.00
2022-11-24T00:23:36.370Z,2.17
2022-11-24T00:26:14.350Z,2.47
2022-11-24T00:28:42.109Z,2.17
2022-11-24T00:31:17.421Z,2.25
2022-11-24T00:33:45.043Z,1.80
2022-11-24T00:36:11.785Z,2.38
2022-11-24T00:38:38.525Z,2.05
2022-11-24T00:41:05.814Z,2.47
2022-11-24T00:43:33.136Z,2.10
2022-11-24T00:45:59.919Z,2.30
2022-11-24T00:48:26.885Z,2.25
2022-11-24T00:51:21.189Z,2.30
2022-11-24T00:53:48.377Z,2.08
2022-11-24T00:56:15.350Z,2.17
2022-11-24T00:58:42.123Z,2.05
2022-11-24T01:01:20.600Z,2.30
2022-11-24T01:03:47.829Z,2.80
2022-11-24T01:06:20.313Z,2.28
2022-11-24T01:08:47.756Z,2.60
2022-11-24T01:11:20.190Z,2.40
2022-11-24T01:13:50.049Z,2.20
2022-11-24T01:16:22.379Z,2.40
2022-11-24T01:18:49.471Z,2.42
2022-11-24T01:21:16.348Z,1.90
2022-11-24T01:23:43.027Z,2.70
2022-11-24T01:26:12.186Z,2.30
2022-11-24T01:28:44.870Z,2.28
2022-11-24T01:31:13.806Z,2.30
2022-11-24T01:33:40.585Z,2.35
2022-11-24T01:36:07.525Z,2.00
2022-11-24T01:38:34.184Z,2.00
2022-11-24T01:41:12.641Z,1.83
2022-11-24T01:43:40.222Z,2.42
2022-11-24T01:46:19.629Z,2.35
2022-11-24T01:49:10.880Z,2.75
2022-11-24T01:51:45.409Z,2.28
2022-11-24T01:54:18.525Z,2.40
2022-11-24T01:56:48.316Z,2.38
2022-11-24T01:59:17.415Z,1.80
2022-11-24T02:01:44.606Z,2.22
2022-11-24T02:04:14.900Z,2.38
2022-11-24T02:06:43.987Z,2.63
2022-11-24T02:09:21.651Z,2.53
2022-11-24T02:11:48.323Z,2.35
2022-11-24T02:14:17.338Z,2.50
2022-11-24T02:16:49.342Z,2.40
2022-11-24T02:19:27.351Z,2.28
2022-11-24T02:21:53.909Z,2.30
2022-11-24T02:24:30.535Z,2.30
2022-11-24T02:26:57.348Z,2.72
2022-11-24T02:29:24.083Z,2.28
2022-11-24T02:32:01.065Z,2.40
2022-11-24T02:34:27.701Z,2.70
2022-11-24T02:36:54.219Z,2.65
2022-11-24T02:39:21.320Z,2.60
2022-11-24T02:41:56.772Z,2.38
2022-11-24T02:44:28.425Z,2.40
2022-11-24T02:47:10.691Z,2.58
2022-11-24T02:49:37.320Z,2.70
2022-11-24T02:52:04.866Z,2.50
2022-11-24T02:54:32.066Z,2.55
2022-11-24T02:56:59.257Z,2.50
2022-11-24T02:59:26.071Z,2.63
2022-11-24T03:01:52.890Z,2.00
2022-11-24T03:04:19.510Z,2.67
2022-11-24T03:06:46.106Z,2.30
2022-11-24T03:09:12.686Z,2.58
2022-11-24T03:11:39.474Z,2.42
2022-11-24T03:14:06.832Z,2.55
2022-11-24T03:16:33.817Z,2.75
2022-11-24T03:19:00.513Z,2.70
2022-11-24T03:21:27.462Z,2.88
2022-11-24T03:23:54.364Z,2.58
2022-11-24T03:26:22.478Z,2.25
2022-11-24T03:28:49.359Z,2.50
2022-11-24T03:31:16.387Z,2.90
2022-11-24T03:33:43.067Z,2.63
2022-11-24T03:36:10.086Z,2.05
2022-11-24T03:38:36.928Z,2.35
2022-11-24T03:41:04.886Z,2.20
2022-11-24T03:43:31.945Z,2.25
2022-11-24T03:45:58.772Z,2.80
2022-11-24T03:48:25.931Z,2.45
2022-11-24T03:50:57.798Z,2.28
2022-11-24T03:53:26.238Z,2.33
2022-11-24T03:55:53.287Z,2.33
2022-11-24T03:58:20.464Z,2.28
2022-11-24T04:00:51.213Z,2.30
2022-11-24T04:03:19.323Z,2.38
2022-11-24T04:05:46.536Z,2.20
2022-11-24T04:08:13.711Z,2.25
2022-11-24T04:10:40.706Z,2.20
2022-11-24T04:13:15.947Z,2.58
2022-11-24T04:15:44.164Z,2.50
2022-11-24T04:18:12.034Z,2.08
2022-11-24T04:20:39.290Z,2.00
2022-11-24T04:23:06.506Z,2.08
2022-11-24T04:25:33.366Z,2.22
2022-11-24T04:28:00.035Z,2.20
2022-11-24T04:30:28.647Z,2.33
2022-11-24T04:32:56.922Z,2.40
2022-11-24T04:35:24.072Z,2.22
2022-11-24T04:37:50.703Z,2.22
2022-11-24T04:40:17.671Z,2.10
2022-11-24T04:42:44.514Z,2.33
2022-11-24T04:45:11.616Z,2.00
2022-11-24T04:47:38.371Z,2.60
2022-11-24T04:50:07.665Z,2.35
2022-11-24T04:52:34.250Z,2.20
2022-11-24T04:55:01.258Z,2.42
2022-11-24T04:57:28.259Z,2.35
2022-11-24T04:59:55.498Z,2.60
2022-11-24T05:02:22.579Z,2.40
2022-11-24T05:04:49.615Z,2.65
2022-11-24T05:07:19.353Z,2.47
2022-11-24T05:10:06.222Z,2.53
2022-11-24T05:12:32.921Z,2.35
2022-11-24T05:15:00.721Z,2.70
2022-11-24T05:17:32.977Z,2.38
2022-11-24T05:19:59.630Z,2.22
2022-11-24T05:22:28.311Z,2.53
2022-11-24T05:24:55.195Z,2.15
2022-11-24T05:27:22.033Z,2.65
2022-11-24T05:29:48.943Z,2.38
2022-11-24T05:32:15.791Z,2.58
2022-11-24T05:34:42.350Z,3.10
2022-11-24T05:37:09.387Z,3.03
2022-11-24T05:39:36.878Z,2.45
2022-11-24T05:42:25.039Z,2.65
2022-11-24T05:44:52.486Z,2.97
2022-11-24T05:47:21.434Z,2.88
2022-11-24T05:49:48.013Z,3.00
2022-11-24T05:52:15.562Z,2.63
2022-11-24T05:54:42.088Z,2.75
2022-11-24T05:57:08.637Z,2.97
2022-11-24T05:59:35.466Z,2.97
2022-11-24T06:02:02.195Z,2.92
2022-11-24T06:04:28.790Z,2.90
2022-11-24T06:06:55.556Z,2.95
2022-11-24T06:09:22.244Z,2.85
2022-11-24T06:11:48.788Z,3.00
2022-11-24T06:14:15.488Z,3.05
2022-11-24T06:16:42.270Z,2.75
2022-11-24T06:19:10.527Z,2.85
2022-11-24T06:21:37.504Z,3.40
2022-11-24T06:24:04.866Z,3.20
2022-11-24T06:26:31.814Z,2.65
2022-11-24T06:28:58.483Z,2.90
2022-11-24T06:31:25.740Z,2.72
2022-11-24T06:33:53.284Z,3.20
2022-11-24T06:36:20.431Z,3.10
2022-11-24T06:38:47.092Z,3.30
2022-11-24T06:41:15.144Z,3.22
2022-11-24T06:43:41.951Z,3.75
2022-11-24T06:46:11.671Z,3.80
2022-11-24T06:48:39.027Z,3.53
2022-11-24T06:51:08.476Z,3.45
2022-11-24T06:53:38.150Z,3.92
2022-11-24T06:56:12.157Z,3.50
2022-11-24T06:58:44.380Z,3.30
2022-11-24T07:01:16.086Z,3.72
2022-11-24T07:03:42.787Z,3.42
2022-11-24T07:06:09.400Z,4.07
2022-11-24T07:08:35.895Z,3.75
2022-11-24T07:11:11.313Z,4.20
2022-11-24T07:13:38.698Z,4.13
2022-11-24T07:16:17.188Z,3.78
2022-11-24T07:18:45.465Z,5.18
2022-11-24T07:21:12.373Z,4.72
2022-11-24T07:23:39.457Z,4.85
2022-11-24T07:26:07.684Z,4.07
2022-11-24T07:28:36.626Z,3.83
2022-11-24T07:31:11.731Z,4.90
2022-11-24T07:33:39.037Z,3.83
2022-11-24T07:36:07.173Z,3.10
2022-11-24T07:38:33.834Z,3.35
2022-11-24T07:41:06.389Z,3.25
2022-11-24T07:43:34.840Z,3.22
2022-11-24T07:46:02.145Z,3.60
2022-11-24T07:48:28.970Z,4.57
2022-11-24T07:50:58.657Z,6.25
2022-11-24T07:53:25.211Z,5.03
2022-11-24T07:55:56.197Z,4.60
2022-11-24T07:58:23.304Z,3.90
2022-11-24T08:00:50.284Z,3.53
2022-11-24T08:03:17.062Z,3.53
2022-11-24T08:06:07.740Z,3.50
2022-11-24T08:08:33.303Z,3.35
2022-11-24T08:11:11.443Z,4.88
2022-11-24T08:13:38.940Z,3.70
2022-11-24T08:16:07.988Z,4.22
2022-11-24T08:18:36.264Z,4.25
2022-11-24T08:21:03.226Z,4.55
2022-11-24T08:23:30.525Z,5.22
2022-11-24T08:26:00.544Z,5.32
2022-11-24T08:28:27.171Z,4.03
2022-11-24T08:30:53.818Z,3.90
2022-11-24T08:33:20.376Z,5.28
2022-11-24T08:35:46.886Z,9.05
2022-11-24T08:38:13.412Z,7.03
2022-11-24T08:40:39.931Z,5.82
2022-11-24T08:43:06.505Z,5.20
2022-11-24T08:45:36.720Z,4.50
2022-11-24T08:48:07.523Z,4.30
2022-11-24T08:50:35.595Z,3.47
2022-11-24T08:53:02.165Z,3.15
2022-11-24T08:55:28.816Z,2.80
2022-11-24T08:57:55.446Z,2.50
2022-11-24T09:00:23.725Z,2.83
2022-11-24T09:02:58.269Z,2.55
2022-11-24T09:05:50.529Z,2.78
2022-11-24T09:08:12.458Z,2.72
2022-11-24T09:10:38.909Z,2.80
2022-11-24T09:13:05.533Z,2.70
2022-11-24T09:15:32.010Z,2.90
2022-11-24T09:17:58.560Z,3.20
2022-11-24T09:20:25.126Z,3.28
2022-11-24T09:22:51.748Z,2.78
2022-11-24T09:25:18.496Z,3.15
2022-11-24T09:27:45.127Z,2.40
2022-11-24T09:30:12.609Z,2.13
2022-11-24T09:32:39.150Z,2.03
2022-11-24T09:35:05.916Z,2.33
2022-11-24T09:37:33.512Z,2.22
2022-11-24T09:40:00.249Z,2.03
2022-11-24T09:42:38.243Z,2.47
2022-11-24T09:45:19.859Z,2.15
2022-11-24T09:48:03.673Z,2.10
2022-11-24T09:50:39.426Z,2.28
2022-11-24T09:53:17.186Z,2.45
2022-11-24T09:55:50.339Z,2.35
2022-11-24T09:58:42.924Z,1.80
2022-11-24T10:01:18.437Z,1.83
2022-11-24T10:03:50.880Z,2.00
2022-11-24T10:06:24.962Z,2.08
2022-11-24T10:09:03.264Z,2.10
2022-11-24T10:12:00.864Z,2.05
2022-11-24T10:14:55.152Z,2.42
2022-11-24T10:17:53.265Z,2.28
2022-11-24T10:20:38.680Z,2.05
2022-11-24T10:23:25.733Z,2.05
2022-11-24T10:25:52.286Z,1.95
2022-11-24T10:28:19.111Z,1.75
2022-11-24T10:30:46.507Z,2.08
2022-11-24T10:33:19.242Z,1.90
2022-11-24T10:35:54.892Z,1.75
2022-11-24T10:38:21.776Z,1.67
2022-11-24T10:40:58.211Z,1.80
2022-11-24T10:43:28.227Z,1.75
2022-11-24T10:46:00.052Z,1.48
2022-11-24T10:48:36.097Z,1.73
2022-11-24T10:51:33.002Z,2.10
2022-11-24T10:54:12.452Z,2.30
2022-11-24T10:56:41.244Z,2.45
2022-11-24T10:59:21.375Z,1.77
2022-11-24T11:01:48.392Z,1.30
2022-11-24T11:04:26.974Z,1.90
2022-11-24T11:07:08.260Z,1.70
2022-11-24T11:09:35.095Z,1.92
2022-11-24T11:12:42.904Z,1.65
2022-11-24T11:15:29.052Z,1.85
2022-11-24T11:18:01.180Z,1.67
2022-11-24T11:20:35.242Z,1.90
2022-11-24T11:23:16.065Z,1.58
2022-11-24T11:25:43.721Z,2.08
2022-11-24T11:28:29.836Z,2.30
2022-11-24T11:31:22.179Z,2.13
2022-11-24T11:34:08.349Z,1.77
2022-11-24T11:36:47.743Z,1.65
2022-11-24T11:39:23.926Z,1.60
2022-11-24T11:41:58.704Z,1.70
2022-11-24T11:44:38.590Z,1.63
2022-11-24T11:47:36.384Z,1.70
2022-11-24T11:50:03.218Z,1.80
2022-11-24T11:52:32.670Z,1.70
2022-11-24T11:55:26.885Z,1.60
2022-11-24T11:58:05.582Z,1.88
2022-11-24T12:00:38.686Z,1.98
2022-11-24T12:03:24.073Z,1.75
2022-11-24T12:06:06.144Z,2.00
2022-11-24T12:14:41.520Z,1.30
2022-11-24T12:17:19.571Z,1.80
2022-11-24T12:19:52.200Z,1.67
2022-11-24T12:22:46.138Z,1.85
2022-11-24T12:25:33.448Z,2.03
2022-11-24T12:28:31.882Z,1.80
2022-11-24T12:36:30.381Z,1.88
2022-11-24T12:39:19.771Z,1.80
2022-11-24T12:42:09.148Z,1.80
2022-11-24T12:44:42.490Z,2.03
2022-11-24T12:47:08.350Z,2.08
2022-11-24T12:50:06.833Z,2.03
2022-11-24T12:58:09.386Z,4.03
2022-11-24T13:00:42.541Z,4.15
2022-11-24T13:03:29.262Z,2.17
2022-11-24T13:06:14.965Z,2.20
2022-11-24T13:08:41.048Z,1.88
2022-11-24T13:11:22.293Z,2.25
2022-11-24T13:21:40.770Z,1.80
2022-11-24T13:26:49.395Z,1.67
2022-11-24T13:29:27.605Z,1.48
2022-11-24T13:32:03.215Z,1.70
2022-11-24T13:34:39.430Z,1.27
2022-11-24T13:37:35.103Z,1.60
2022-11-24T13:40:31.346Z,1.80
2022-11-24T13:42:57.971Z,1.75
2022-11-24T13:45:40.156Z,1.40
2022-11-24T13:48:19.500Z,1.25
2022-11-24T13:50:55.980Z,2.30
2022-11-24T13:53:37.023Z,2.50
2022-11-24T13:56:09.427Z,2.72
2022-11-24T13:58:37.472Z,2.30
2022-11-24T14:01:28.821Z,1.83
2022-11-24T14:04:39.542Z,1.67
2022-11-24T14:07:12.644Z,1.92
2022-11-24T14:09:52.192Z,1.90
2022-11-24T14:12:23.385Z,1.90
2022-11-24T14:14:51.960Z,2.20
2022-11-24T14:17:22.344Z,1.90
2022-11-24T14:19:54.046Z,2.22
2022-11-24T14:22:31.843Z,1.80
2022-11-24T14:25:00.683Z,1.70
2022-11-24T14:27:37.054Z,1.30
2022-11-24T14:30:09.895Z,1.63
2022-11-24T14:32:37.872Z,1.77
2022-11-24T14:35:24.839Z,1.48
2022-11-24T14:37:51.827Z,1.85
2022-11-24T14:40:45.330Z,1.40
2022-11-24T14:43:30.803Z,1.77
2022-11-24T14:46:09.323Z,2.03
2022-11-24T14:48:47.474Z,1.65
2022-11-24T14:51:26.282Z,1.63
2022-11-24T14:53:59.962Z,1.80
2022-11-24T14:56:28.281Z,1.67
2022-11-24T14:58:56.184Z,1.77
2022-11-24T15:01:28.737Z,2.20
2022-11-24T15:04:46.229Z,1.80
2022-11-24T15:07:21.595Z,2.35
2022-11-24T15:09:48.203Z,1.98
2022-11-24T15:12:43.931Z,2.25
2022-11-24T15:15:13.510Z,2.00
2022-11-24T15:17:55.895Z,1.75
2022-11-24T15:20:38.231Z,2.05
2022-11-24T15:23:27.649Z,2.33
2022-11-24T15:26:17.726Z,2.20
2022-11-24T15:28:46.515Z,1.73
2022-11-24T15:31:14.441Z,2.50
2022-11-24T15:33:42.293Z,2.88
2022-11-24T15:36:09.148Z,2.03
2022-11-24T15:38:35.758Z,2.40
2022-11-24T15:41:02.604Z,2.58
2022-11-24T15:43:31.218Z,2.45
2022-11-24T15:45:59.243Z,2.30
2022-11-24T15:48:26.750Z,2.05
2022-11-24T15:50:54.172Z,2.53
2022-11-24T15:53:30.434Z,2.90
2022-11-24T15:55:57.693Z,2.60
2022-11-24T15:58:24.535Z,2.55
2022-11-24T16:00:53.404Z,2.70
2022-11-24T16:06:12.938Z,2.85
2022-11-24T16:08:39.514Z,3.80
2022-11-24T16:11:06.334Z,4.03
2022-11-24T16:13:33.079Z,3.60
2022-11-24T16:15:59.861Z,3.47
2022-11-24T16:18:26.518Z,4.03
2022-11-24T16:20:53.099Z,3.50
2022-11-24T16:23:20.446Z,3.67
2022-11-24T16:25:47.037Z,4.05
2022-11-24T16:28:13.661Z,3.90
2022-11-24T16:30:40.450Z,4.20
2022-11-24T16:33:07.083Z,4.63
2022-11-24T16:35:34.141Z,4.75
2022-11-24T16:38:00.733Z,4.32
2022-11-24T16:40:28.602Z,4.65
2022-11-24T16:42:56.267Z,4.38
2022-11-24T16:45:22.868Z,4.40
2022-11-24T16:47:49.535Z,5.05
2022-11-24T16:50:17.720Z,4.95
2022-11-24T16:52:44.269Z,6.00
2022-11-24T16:55:11.743Z,6.35
2022-11-24T16:57:38.345Z,6.47
2022-11-24T17:00:06.187Z,4.93
2022-11-24T17:02:33.973Z,6.00
2022-11-24T17:05:00.760Z,7.72
2022-11-24T17:07:27.474Z,4.75
2022-11-24T17:09:54.243Z,5.25
2022-11-24T17:12:20.884Z,4.78
2022-11-24T17:15:03.385Z,5.05
2022-11-24T17:17:34.150Z,4.15
2022-11-24T17:20:00.818Z,4.50
2022-11-24T17:22:28.037Z,5.00
2022-11-24T17:24:54.583Z,5.05
2022-11-24T17:27:21.209Z,4.57
2022-11-24T17:29:47.770Z,4.30
2022-11-24T17:32:14.370Z,5.10
2022-11-24T17:34:41.090Z,5.30
2022-11-24T17:37:07.956Z,5.20
2022-11-24T17:39:34.661Z,4.80
2022-11-24T17:42:01.229Z,5.03
2022-11-24T17:44:27.840Z,4.60
2022-11-24T17:46:54.527Z,4.45
2022-11-24T17:49:21.288Z,4.63
2022-11-24T17:51:50.436Z,4.00
2022-11-24T17:54:45.458Z,3.65
2022-11-24T17:57:04.990Z,4.00
2022-11-24T17:59:31.758Z,3.58
2022-11-24T18:01:58.454Z,3.25
2022-11-24T18:04:25.321Z,3.55
2022-11-24T18:06:51.936Z,3.63
2022-11-24T18:09:18.596Z,3.38
2022-11-24T18:11:45.281Z,4.05
2022-11-24T18:14:11.968Z,4.25
2022-11-24T18:16:38.658Z,4.20
2022-11-24T18:19:10.715Z,4.00
2022-11-24T18:21:42.210Z,3.88
2022-11-24T18:24:11.001Z,3.42
2022-11-24T18:26:38.906Z,3.88
2022-11-24T18:29:05.873Z,3.80
2022-11-24T18:31:34.373Z,4.68
2022-11-24T18:34:02.439Z,4.30
2022-11-24T18:36:30.821Z,4.20
2022-11-24T18:39:06.007Z,4.20
2022-11-24T18:41:33.027Z,3.95
2022-11-24T18:44:03.064Z,3.90
2022-11-24T18:46:29.829Z,4.30
2022-11-24T18:48:56.544Z,4.72
2022-11-24T18:51:23.544Z,4.38
2022-11-24T18:53:58.074Z,4.72
2022-11-24T18:56:25.628Z,5.18
2022-11-24T18:58:53.803Z,5.53
2022-11-24T19:01:23.158Z,5.38
2022-11-24T19:03:52.235Z,6.35
2022-11-24T19:06:32.113Z,5.43
2022-11-24T19:09:02.273Z,5.20
2022-11-24T19:11:35.259Z,6.05
2022-11-24T19:14:06.889Z,5.68
2022-11-24T19:16:34.031Z,5.82
2022-11-24T19:19:02.646Z,5.88
2022-11-24T19:21:35.350Z,7.22
2022-11-24T19:24:05.289Z,6.47
2022-11-24T19:26:33.095Z,5.82
2022-11-24T19:28:59.665Z,5.53
2022-11-24T19:31:26.447Z,5.80
2022-11-24T19:33:54.650Z,5.97
2022-11-24T19:36:23.371Z,5.45
2022-11-24T19:38:51.896Z,5.40
2022-11-24T19:41:20.536Z,5.53
2022-11-24T19:43:48.363Z,5.63
2022-11-24T19:46:18.170Z,5.63
2022-11-24T19:48:47.313Z,5.18
2022-11-24T19:51:19.307Z,5.63
2022-11-24T19:53:46.576Z,6.00
2022-11-24T19:56:16.859Z,5.68
2022-11-24T19:58:43.743Z,5.60
2022-11-24T20:01:12.086Z,5.53
2022-11-24T20:03:40.503Z,6.55
2022-11-24T20:06:09.006Z,6.40
2022-11-24T20:08:37.471Z,5.60
2022-11-24T20:11:22.209Z,6.95
2022-11-24T20:13:49.920Z,6.95
2022-11-24T20:16:19.453Z,7.00
2022-11-24T20:18:47.754Z,6.90
2022-11-24T20:21:17.638Z,6.50
2022-11-24T20:23:46.169Z,7.28
2022-11-24T20:26:19.763Z,6.85
2022-11-24T20:28:47.519Z,6.68
2022-11-24T20:31:17.031Z,6.82
2022-11-24T20:33:45.355Z,7.38
2022-11-24T20:36:17.818Z,6.75
2022-11-24T20:38:45.834Z,6.80
2022-11-24T20:41:18.782Z,6.95
2022-11-24T20:43:46.049Z,6.85
2022-11-24T20:46:22.587Z,7.35
2022-11-24T20:48:49.757Z,6.07
2022-11-24T20:51:21.531Z,6.20
2022-11-24T20:53:49.281Z,6.72
2022-11-24T20:56:19.631Z,6.28
2022-11-24T20:58:46.614Z,6.85
2022-11-24T21:01:21.740Z,6.70
2022-11-24T21:03:57.202Z,8.23
2022-11-24T21:06:24.890Z,9.20
2022-11-24T21:08:51.895Z,8.50
2022-11-24T21:11:19.596Z,8.60
2022-11-24T21:13:47.735Z,8.48
2022-11-24T21:16:30.260Z,8.00
2022-11-24T21:18:59.676Z,7.32
2022-11-24T21:21:33.451Z,7.07
2022-11-24T21:24:11.219Z,7.13
2022-11-24T21:26:39.179Z,6.72
2022-11-24T21:29:06.947Z,6.72
2022-11-24T21:31:38.452Z,7.28
2022-11-24T21:34:06.184Z,7.35
2022-11-24T21:36:35.161Z,7.60
2022-11-24T21:39:02.701Z,7.47
2022-11-24T21:41:32.402Z,6.97
2022-11-24T21:43:59.034Z,7.43
2022-11-24T21:46:26.028Z,7.05
2022-11-24T21:48:52.616Z,7.07
2022-11-24T21:51:20.915Z,8.15
2022-11-24T21:53:47.838Z,7.28
2022-11-24T21:56:19.998Z,7.10
2022-11-24T21:58:54.749Z,7.22
2022-11-24T22:01:23.705Z,7.53
2022-11-24T22:03:50.575Z,7.65
2022-11-24T22:06:19.186Z,7.50
2022-11-24T22:08:49.199Z,7.30
2022-11-24T22:11:21.390Z,7.88
2022-11-24T22:13:48.820Z,6.47
2022-11-24T22:16:18.248Z,6.97
2022-11-24T22:18:45.961Z,5.82
2022-11-24T22:21:18.438Z,6.50
2022-11-24T22:23:45.418Z,6.07
2022-11-24T22:26:15.172Z,6.32
2022-11-24T22:28:43.347Z,6.10
2022-11-24T22:31:15.785Z,6.63
2022-11-24T22:33:43.628Z,7.25
2022-11-24T22:36:11.564Z,6.03
2022-11-24T22:38:38.995Z,6.85
2022-11-24T22:41:11.398Z,6.28
2022-11-24T22:43:39.770Z,6.68
2022-11-24T22:46:15.432Z,6.50
2022-11-24T22:48:43.219Z,6.55
2022-11-24T22:51:31.521Z,6.88
2022-11-24T22:54:01.303Z,6.43
2022-11-24T22:56:28.542Z,6.30
2022-11-24T22:58:55.420Z,6.82
2022-11-24T23:01:24.070Z,6.22
2022-11-24T23:03:53.807Z,6.10
2022-11-24T23:06:22.717Z,6.97
2022-11-24T23:08:50.474Z,5.93
2022-11-24T23:11:27.365Z,5.70
2022-11-24T23:14:02.027Z,6.22
2022-11-24T23:16:29.611Z,5.68
2022-11-24T23:18:57.036Z,5.22
2022-11-24T23:21:29.068Z,5.60
2022-11-24T23:23:57.857Z,5.63
2022-11-24T23:26:31.401Z,5.60
2022-11-24T23:28:58.231Z,5.13
2022-11-24T23:31:28.686Z,5.32
2022-11-24T23:34:00.256Z,5.25
2022-11-24T23:36:28.274Z,5.47
2022-11-24T23:38:55.070Z,5.55
2022-11-24T23:41:25.181Z,4.72
2022-11-24T23:43:52.424Z,4.60
2022-11-24T23:46:23.926Z,5.20
2022-11-24T23:48:52.227Z,5.35
2022-11-24T23:51:23.866Z,5.45
2022-11-24T23:53:51.174Z,5.25
2022-11-24T23:56:23.622Z,5.85
2022-11-24T23:58:51.024Z,5.75
